Time;durP1;ratioP1;P1;durP2;ratioP2;P2;SDS_P1;SDS_P2;PMS_P1;PMS_P2;Temp;Humidity;BMP_temperature;BMP_pressure;BME280_temperature;BME280_humidity;BME280_pressure;Samples;Min_cycle;Max_cycle;Signal;HPM_P1;HPM_P2
2023/03/20 00:02:06;;;;;;;;;;;;;;;15.65;100.00;101804.00;4989224;28;19915;-47
2023/03/20 00:04:32;;;;;;;;;;;;;;;15.93;100.00;101800.34;4993672;28;19918;-51
2023/03/20 00:06:57;;;;;;;;;;;;;;;15.11;100.00;101793.97;4987116;28;19956;-54
2023/03/20 00:09:24;;;;;;;;;;;;;;;15.23;100.00;101799.59;4983916;28;19921;-52
2023/03/20 00:11:51;;;;;;;;;;;;;;;15.41;100.00;101795.47;4988752;28;19942;-48
2023/03/20 00:14:18;;;;;;;;;;;;;;;15.70;100.00;101801.53;4984616;28;19914;-52
2023/03/20 00:16:45;;;;;;;;;;;;;;;15.61;100.00;101792.81;4989886;28;19940;-54
2023/03/20 00:19:15;;;;;;;;;;;;;;;15.23;100.00;101799.59;4989941;28;19918;-51
2023/03/20 00:21:40;;;;;;;;;;;;;;;14.96;100.00;101787.88;4987581;28;19921;-52
2023/03/20 00:24:06;;;;;;;;;;;;;;;14.79;100.00;101790.91;4989774;28;19974;-49
2023/03/20 00:26:34;;;;;;;;;;;;;;;15.12;100.00;101792.94;4988735;28;19922;-50
2023/03/20 00:29:00;;;;;;;;;;;;;;;15.12;100.00;101792.94;4988509;28;19921;-52
2023/03/20 00:31:28;;;;;;;;;;;;;;;15.25;100.00;101786.75;4996310;28;19928;-52
2023/03/20 00:33:56;;;;;;;;;;;;;;;15.43;100.00;101779.91;4986561;28;19969;-50
2023/03/20 00:36:21;;;;;;;;;;;;;;;14.97;100.00;101776.91;4989358;28;20055;-52
2023/03/20 00:38:47;;;;;;;;;;;;;;;15.34;100.00;101769.34;4985009;28;19917;-53
2023/03/20 00:41:19;;;;;;;;;;;;;;;15.29;100.00;101774.50;4981338;28;19925;-50
2023/03/20 00:43:47;;;;;;;;;;;;;;;15.65;100.00;101761.69;4982466;28;19914;-52
2023/03/20 00:46:13;;;;;;;;;;;;;;;15.44;100.00;101765.41;4988659;28;19918;-51
2023/03/20 00:48:39;;;;;;;;;;;;;;;15.29;100.00;101779.91;4993839;28;19965;-53
2023/03/20 00:51:05;;;;;;;;;;;;;;;15.85;100.00;101788.66;4990100;28;19929;-51
2023/03/20 00:53:30;;;;;;;;;;;;;;;15.24;100.00;101795.00;4986100;28;19913;-52
2023/03/20 00:55:55;;;;;;;;;;;;;;;15.13;100.00;101802.66;4992711;28;19922;-52
2023/03/20 00:58:21;;;;;;;;;;;;;;;15.68;100.00;101796.34;4995907;28;19920;-49
2023/03/20 01:00:46;;;;;;;;;;;;;;;15.54;100.00;101811.66;4993706;28;19923;-53
2023/03/20 01:03:17;;;;;;;;;;;;;;;15.12;100.00;101808.25;4986125;28;19914;-52
2023/03/20 01:05:44;;;;;;;;;;;;;;;15.55;100.00;101815.19;4991165;28;19918;-51
2023/03/20 01:08:14;;;;;;;;;;;;;;;15.20;100.00;101808.06;4989601;28;19914;-51
2023/03/20 01:10:40;;;;;;;;;;;;;;;15.05;100.00;101809.06;4993029;28;19914;-54
2023/03/20 01:13:09;;;;;;;;;;;;;;;15.20;100.00;101825.06;4991983;28;19920;-52
2023/03/20 01:15:35;;;;;;;;;;;;;;;15.35;100.00;101824.09;4984694;28;19940;-55
2023/03/20 01:18:01;;;;;;;;;;;;;;;15.36;100.00;101827.59;4989356;28;19914;-50
2023/03/20 01:20:28;;;;;;;;;;;;;;;15.42;100.00;101826.78;4996383;28;19916;-51
2023/03/20 01:22:54;;;;;;;;;;;;;;;15.86;100.00;101827.28;5000279;28;19933;-51
2023/03/20 01:25:20;;;;;;;;;;;;;;;15.76;100.00;101824.97;4992384;28;19918;-55
2023/03/20 01:27:49;;;;;;;;;;;;;;;15.04;100.00;101823.56;5000314;28;19922;-49
2023/03/20 01:30:18;;;;;;;;;;;;;;;14.73;100.00;101819.47;4995703;28;19914;-52
2023/03/20 01:32:45;;;;;;;;;;;;;;;14.59;100.00;101812.34;4987955;28;19914;-51
2023/03/20 01:35:11;;;;;;;;;;;;;;;14.58;100.00;101803.41;5001287;28;19914;-53
2023/03/20 01:37:37;;;;;;;;;;;;;;;15.11;100.00;101815.50;4985315;28;19977;-50
2023/03/20 01:40:03;;;;;;;;;;;;;;;15.22;100.00;101816.75;4989937;28;19922;-51
2023/03/20 01:42:32;;;;;;;;;;;;;;;14.80;100.00;101813.31;4983627;28;19946;-50
2023/03/20 01:44:57;;;;;;;;;;;;;;;15.16;100.00;101806.81;5009159;28;19918;-52
2023/03/20 01:47:24;;;;;;;;;;;;;;;15.09;100.00;101812.16;4991206;28;19922;-52
2023/03/20 01:50:17;;;;;;;;;;;;;;;15.20;100.00;101810.75;4995289;28;19918;-55
2023/03/20 01:52:43;;;;;;;;;;;;;;;14.81;100.00;101809.59;4989996;28;19914;-51
2023/03/20 01:55:09;;;;;;;;;;;;;;;14.80;100.00;101814.13;4985918;28;19915;-49
2023/03/20 01:57:37;;;;;;;;;;;;;;;14.70;100.00;101809.06;4975536;28;19914;-54
2023/03/20 02:00:05;;;;;;;;;;;;;;;15.04;100.00;101809.25;4989563;28;19917;-50
2023/03/20 02:02:41;;;;;;;;;;;;;;;15.05;100.00;101800.97;4987897;28;19914;-54
2023/03/20 02:05:09;;;;;;;;;;;;;;;15.00;100.00;101800.75;4983098;28;19918;-54
2023/03/20 02:07:36;;;;;;;;;;;;;;;15.11;100.00;101798.50;4987792;28;19914;-54
2023/03/20 02:10:10;;;;;;;;;;;;;;;15.08;100.00;101801.59;4999761;28;20281;-55
2023/03/20 02:12:47;;;;;;;;;;;;;;;14.89;100.00;101804.84;4972752;28;20048;-52
2023/03/20 02:15:17;;;;;;;;;;;;;;;15.00;100.00;101805.31;5000263;28;19921;-54
2023/03/20 02:18:03;;;;;;;;;;;;;;;14.60;100.00;101797.84;4981789;28;19918;-55
2023/03/20 02:20:44;;;;;;;;;;;;;;;14.79;100.00;101815.16;4993307;28;19936;-54
2023/03/20 02:23:13;;;;;;;;;;;;;;;14.51;100.00;101818.69;4976631;28;19925;-53
2023/03/20 02:26:01;;;;;;;;;;;;;;;14.86;100.00;101809.81;4974319;28;19918;-50
2023/03/20 02:28:27;;;;;;;;;;;;;;;14.26;100.00;101816.47;4995194;28;19914;-49
2023/03/20 02:30:52;;;;;;;;;;;;;;;14.31;100.00;101808.63;5002720;28;19940;-49
2023/03/20 02:33:18;;;;;;;;;;;;;;;15.01;100.00;101798.88;4988627;28;19973;-50
2023/03/20 02:36:01;;;;;;;;;;;;;;;14.89;100.00;101794.09;4993526;28;19921;-51
2023/03/20 02:38:32;;;;;;;;;;;;;;;14.67;100.00;101781.72;4986293;28;19950;-51
2023/03/20 02:41:01;;;;;;;;;;;;;;;14.65;100.00;101773.84;4968999;28;19921;-53
2023/03/20 02:43:38;;;;;;;;;;;;;;;14.36;100.00;101777.63;4968325;28;19918;-50
2023/03/20 02:46:24;;;;;;;;;;;;;;;13.91;100.00;101779.59;4963873;28;20401;-53
2023/03/20 02:48:55;;;;;;;;;;;;;;;14.39;100.00;101787.97;4965365;28;19922;-51
2023/03/20 02:51:25;;;;;;;;;;;;;;;14.56;100.00;101797.41;4966644;28;19940;-48
2023/03/20 02:53:53;;;;;;;;;;;;;;;14.35;100.00;101784.88;4965707;28;19914;-48
2023/03/20 02:56:33;;;;;;;;;;;;;;;14.24;100.00;101786.25;4963186;28;19946;-50
2023/03/20 02:59:06;;;;;;;;;;;;;;;14.16;100.00;101786.38;4969613;28;19914;-53
2023/03/20 03:01:38;;;;;;;;;;;;;;;14.01;100.00;101789.16;4969162;28;19910;-50
2023/03/20 03:04:07;;;;;;;;;;;;;;;14.09;100.00;101789.03;4966336;28;19914;-53
2023/03/20 03:06:35;;;;;;;;;;;;;;;14.27;100.00;101782.31;4967532;28;19922;-52
2023/03/20 03:09:15;;;;;;;;;;;;;;;14.06;100.00;101765.19;4968339;28;19918;-54
2023/03/20 03:11:47;;;;;;;;;;;;;;;13.96;100.00;101745.91;4964814;28;20001;-50
2023/03/20 03:14:23;;;;;;;;;;;;;;;14.09;100.00;101735.25;4968149;28;19928;-55
2023/03/20 03:16:50;;;;;;;;;;;;;;;13.97;100.00;101743.03;4964431;28;19985;-52
2023/03/20 03:19:18;;;;;;;;;;;;;;;13.67;100.00;101750.44;4970548;28;19915;-53
2023/03/20 03:21:46;;;;;;;;;;;;;;;13.27;100.00;101734.75;4967315;28;19925;-52
2023/03/20 03:24:23;;;;;;;;;;;;;;;13.73;100.00;101741.59;4965398;28;19930;-50
2023/03/20 03:26:49;;;;;;;;;;;;;;;13.86;100.00;101749.78;4965320;28;19914;-49
2023/03/20 03:29:16;;;;;;;;;;;;;;;13.64;100.00;101758.91;4968297;28;19936;-50
2023/03/20 03:31:43;;;;;;;;;;;;;;;13.75;100.00;101736.84;4963931;28;19946;-52
2023/03/20 03:34:12;;;;;;;;;;;;;;;13.77;100.00;101754.47;4968906;28;19915;-50
2023/03/20 03:36:41;;;;;;;;;;;;;;;13.87;100.00;101740.69;4962616;28;19914;-50
2023/03/20 03:39:14;;;;;;;;;;;;;;;13.80;100.00;101738.97;4975017;28;19977;-46
2023/03/20 03:41:42;;;;;;;;;;;;;;;13.84;100.00;101741.06;4977205;28;19914;-51
2023/03/20 03:44:11;;;;;;;;;;;;;;;13.73;100.00;101736.22;4984983;28;19914;-53
2023/03/20 03:46:40;;;;;;;;;;;;;;;13.79;100.00;101727.38;4985745;28;19914;-51
2023/03/20 03:49:07;;;;;;;;;;;;;;;13.85;100.00;101731.13;4984564;28;19920;-53
2023/03/20 03:51:38;;;;;;;;;;;;;;;13.61;100.00;101720.63;4969629;28;19985;-48
2023/03/20 03:54:10;;;;;;;;;;;;;;;13.18;100.00;101736.72;4984741;28;19922;-54
2023/03/20 03:56:37;;;;;;;;;;;;;;;13.22;100.00;101726.41;4997866;28;19921;-51
2023/03/20 03:59:06;;;;;;;;;;;;;;;13.47;100.00;101733.09;4987736;28;19961;-51
2023/03/20 04:01:34;;;;;;;;;;;;;;;13.67;100.00;101724.38;4981529;28;19918;-53
2023/03/20 04:04:02;;;;;;;;;;;;;;;13.63;100.00;101731.16;4997830;28;20013;-54
2023/03/20 04:06:28;;;;;;;;;;;;;;;13.21;100.00;101725.59;4988940;28;19925;-52
2023/03/20 04:08:53;;;;;;;;;;;;;;;13.45;100.00;101710.97;4984630;28;19966;-51
2023/03/20 04:11:21;;;;;;;;;;;;;;;12.87;100.00;101702.91;4989049;28;19978;-52
2023/03/20 04:13:48;;;;;;;;;;;;;;;12.75;100.00;101705.25;4990175;28;19921;-50
2023/03/20 04:16:15;;;;;;;;;;;;;;;13.02;100.00;101706.41;4978216;28;19918;-47
2023/03/20 04:18:42;;;;;;;;;;;;;;;13.16;100.00;101711.91;5000857;28;19925;-51
2023/03/20 04:21:11;;;;;;;;;;;;;;;12.57;100.00;101713.72;4993817;28;19918;-51
2023/03/20 04:23:37;;;;;;;;;;;;;;;12.94;100.00;101695.78;5008588;28;19940;-49
2023/03/20 04:26:03;;;;;;;;;;;;;;;12.79;100.00;101697.69;4987924;28;19921;-48
2023/03/20 04:28:32;;;;;;;;;;;;;;;12.87;100.00;101686.81;4994801;28;19926;-49
2023/03/20 04:31:09;;;;;;;;;;;;;;;12.70;100.00;101686.22;4988581;28;19922;-48
2023/03/20 04:34:00;;;;;;;;;;;;;;;12.76;100.00;101688.97;4993337;28;19973;-47
2023/03/20 04:36:40;;;;;;;;;;;;;;;12.87;100.00;101692.19;4991307;28;19918;-50
2023/03/20 04:39:08;;;;;;;;;;;;;;;12.80;100.00;101699.34;5008757;28;19929;-52
2023/03/20 04:41:33;;;;;;;;;;;;;;;12.84;100.00;101684.50;4991286;28;19922;-51
2023/03/20 04:43:59;;;;;;;;;;;;;;;12.76;100.00;101699.72;4999059;28;19920;-49
2023/03/20 04:46:25;;;;;;;;;;;;;;;13.04;100.00;101701.66;4994206;28;19922;-52
2023/03/20 04:48:51;;;;;;;;;;;;;;;13.17;100.00;101713.59;5006523;28;19914;-51
2023/03/20 04:51:17;;;;;;;;;;;;;;;13.28;100.00;101707.69;5003625;28;20010;-47
2023/03/20 04:53:47;;;;;;;;;;;;;;;13.71;100.00;101706.00;4998875;28;19914;-50
2023/03/20 04:56:13;;;;;;;;;;;;;;;13.34;100.00;101712.28;4979508;28;19940;-50
2023/03/20 04:58:38;;;;;;;;;;;;;;;13.38;100.00;101714.56;4990137;28;19986;-51
2023/03/20 05:01:03;;;;;;;;;;;;;;;13.04;100.00;101709.72;4985110;28;19930;-50
2023/03/20 05:03:29;;;;;;;;;;;;;;;13.37;100.00;101703.00;4978355;28;20392;-51
2023/03/20 05:05:55;;;;;;;;;;;;;;;13.27;100.00;101705.22;4986433;28;19914;-49
2023/03/20 05:08:21;;;;;;;;;;;;;;;13.54;100.00;101700.91;4986748;28;20017;-49
2023/03/20 05:10:48;;;;;;;;;;;;;;;13.55;100.00;101697.19;5005135;28;19937;-49
2023/03/20 05:13:33;;;;;;;;;;;;;;;14.14;100.00;101688.91;4990342;28;19919;-50
2023/03/20 05:16:18;;;;;;;;;;;;;;;14.31;100.00;101687.56;4991068;28;19920;-54
2023/03/20 05:19:11;;;;;;;;;;;;;;;14.05;100.00;101678.31;4994542;28;19968;-52
2023/03/20 05:22:06;;;;;;;;;;;;;;;14.20;100.00;101685.44;5044922;28;19932;-53
2023/03/20 05:25:02;;;;;;;;;;;;;;;14.57;100.00;101686.00;4981250;28;19921;-53
2023/03/20 05:27:46;;;;;;;;;;;;;;;14.16;100.00;101685.00;4991342;28;19921;-50
2023/03/20 05:30:33;;;;;;;;;;;;;;;14.26;100.00;101686.50;4989849;28;19948;-50
2023/03/20 05:33:18;;;;;;;;;;;;;;;14.33;100.00;101695.44;4991911;28;19925;-52
2023/03/20 05:36:02;;;;;;;;;;;;;;;14.15;100.00;101691.41;4990585;28;19940;-52
2023/03/20 05:38:47;;;;;;;;;;;;;;;14.30;100.00;101706.59;4992052;28;19925;-51
2023/03/20 05:41:37;;;;;;;;;;;;;;;14.30;100.00;101706.59;4945654;28;19934;-49
2023/03/20 05:44:28;;;;;;;;;;;;;;;14.26;100.00;101698.09;4984309;28;19921;-49
2023/03/20 05:47:09;;;;;;;;;;;;;;;14.17;100.00;101702.81;4984416;28;20002;-52
2023/03/20 05:49:48;;;;;;;;;;;;;;;13.93;100.00;101701.41;4989531;28;19914;-50
2023/03/20 05:52:25;;;;;;;;;;;;;;;14.18;100.00;101701.78;4985224;28;19913;-52
2023/03/20 05:55:11;;;;;;;;;;;;;;;13.92;100.00;101705.13;5012882;28;19978;-53
2023/03/20 05:57:55;;;;;;;;;;;;;;;13.62;100.00;101708.84;4991150;28;19925;-51
2023/03/20 06:00:27;;;;;;;;;;;;;;;14.07;100.00;101707.72;5001464;28;19949;-50
2023/03/20 06:03:13;;;;;;;;;;;;;;;14.30;100.00;101714.66;4990118;28;19918;-50
2023/03/20 06:05:55;;;;;;;;;;;;;;;14.27;100.00;101715.91;4980889;28;20358;-47
2023/03/20 06:08:21;;;;;;;;;;;;;;;13.90;100.00;101728.69;4994262;28;19932;-50
2023/03/20 06:10:49;;;;;;;;;;;;;;;14.13;100.00;101731.13;4971139;28;19918;-49
2023/03/20 06:13:14;;;;;;;;;;;;;;;13.73;100.00;101742.44;4985825;28;20373;-51
2023/03/20 06:15:40;;;;;;;;;;;;;;;14.16;100.00;101741.50;4985293;28;19951;-52
2023/03/20 06:18:13;;;;;;;;;;;;;;;14.05;100.00;101737.50;4969627;28;19925;-50
2023/03/20 06:20:39;;;;;;;;;;;;;;;13.77;100.00;101734.78;4989645;28;19922;-51
2023/03/20 06:23:05;;;;;;;;;;;;;;;13.95;100.00;101736.19;4980082;28;19914;-53
2023/03/20 06:25:31;;;;;;;;;;;;;;;13.99;100.00;101732.06;4985290;28;19993;-51
2023/03/20 06:27:57;;;;;;;;;;;;;;;13.78;100.00;101736.47;4969704;28;19922;-53
2023/03/20 06:30:23;;;;;;;;;;;;;;;14.13;100.00;101736.50;4988451;28;19925;-50
2023/03/20 06:32:49;;;;;;;;;;;;;;;13.89;100.00;101729.72;4991435;28;19968;-51
2023/03/20 06:35:17;;;;;;;;;;;;;;;13.93;100.00;101733.66;4995306;28;19950;-50
2023/03/20 06:37:45;;;;;;;;;;;;;;;13.85;100.00;101734.66;4974986;28;20049;-52
2023/03/20 06:40:17;;;;;;;;;;;;;;;13.49;100.00;101749.03;4982386;28;19921;-52
2023/03/20 06:42:43;;;;;;;;;;;;;;;14.10;100.00;101739.59;4983643;28;19914;-52
2023/03/20 06:45:10;;;;;;;;;;;;;;;14.07;100.00;101739.16;5007901;28;19921;-48
2023/03/20 06:47:56;;;;;;;;;;;;;;;14.34;100.00;101737.47;4980078;28;19967;-51
2023/03/20 06:50:22;;;;;;;;;;;;;;;13.93;100.00;101749.00;4972812;28;19918;-52
2023/03/20 06:52:48;;;;;;;;;;;;;;;14.32;100.00;101751.09;4967421;28;19915;-48
2023/03/20 06:55:32;;;;;;;;;;;;;;;14.17;100.00;101750.38;4965024;28;19919;-48
2023/03/20 06:57:58;;;;;;;;;;;;;;;14.41;100.00;101759.84;4995250;28;19929;-49
2023/03/20 07:00:25;;;;;;;;;;;;;;;14.49;100.00;101758.84;4974796;28;19914;-51
2023/03/20 07:02:50;;;;;;;;;;;;;;;14.50;100.00;101763.22;4975979;28;19925;-48
2023/03/20 07:05:17;;;;;;;;;;;;;;;13.89;100.00;101757.44;4986968;28;19914;-47
2023/03/20 07:07:43;;;;;;;;;;;;;;;14.12;100.00;101761.75;4981648;28;19924;-51
2023/03/20 07:10:11;;;;;;;;;;;;;;;14.00;100.00;101761.47;4978065;28;19934;-50
2023/03/20 07:12:37;;;;;;;;;;;;;;;13.89;100.00;101780.81;4986396;28;20002;-53
2023/03/20 07:15:02;;;;;;;;;;;;;;;13.89;100.00;101770.91;4985638;28;19918;-52
2023/03/20 07:17:29;;;;;;;;;;;;;;;13.77;100.00;101775.97;4997959;28;19929;-52
2023/03/20 07:19:55;;;;;;;;;;;;;;;13.82;100.00;101775.38;4994243;28;19967;-48
2023/03/20 07:22:24;;;;;;;;;;;;;;;13.82;100.00;101763.78;4989079;28;20031;-52
2023/03/20 07:24:51;;;;;;;;;;;;;;;13.79;100.00;101765.00;4996939;28;19921;-52
2023/03/20 07:27:18;;;;;;;;;;;;;;;14.03;100.00;101762.91;4987220;28;19973;-50
2023/03/20 07:29:45;;;;;;;;;;;;;;;14.30;100.00;101776.53;4971765;28;19914;-52
2023/03/20 07:32:14;;;;;;;;;;;;;;;14.52;100.00;101763.00;4987991;28;19977;-50
2023/03/20 07:34:47;;;;;;;;;;;;;;;14.38;100.00;101770.16;4984105;28;19925;-53
2023/03/20 07:37:12;;;;;;;;;;;;;;;14.56;100.00;101767.78;4985176;28;19921;-49
2023/03/20 07:39:41;;;;;;;;;;;;;;;14.48;100.00;101773.34;4960415;28;19914;-51
2023/03/20 07:42:26;;;;;;;;;;;;;;;14.31;100.00;101773.66;4967434;28;19919;-49
2023/03/20 07:44:57;;;;;;;;;;;;;;;14.61;100.00;101773.41;4964687;28;19918;-51
2023/03/20 07:47:23;;;;;;;;;;;;;;;14.63;100.00;101770.53;4966156;28;20420;-49
2023/03/20 07:49:48;;;;;;;;;;;;;;;14.66;100.00;101775.50;4968299;28;20010;-53
2023/03/20 07:52:14;;;;;;;;;;;;;;;14.80;100.00;101776.41;4968223;28;19922;-50
2023/03/20 07:54:40;;;;;;;;;;;;;;;14.46;100.00;101768.16;4969952;28;19927;-53
2023/03/20 07:57:05;;;;;;;;;;;;;;;14.57;100.00;101761.38;4970563;28;19914;-52
2023/03/20 07:59:31;;;;;;;;;;;;;;;15.18;100.00;101765.16;4967058;28;19914;-52
2023/03/20 08:01:56;;;;;;;;;;;;;;;15.17;100.00;101759.97;4967330;28;19949;-50
2023/03/20 08:04:22;;;;;;;;;;;;;;;14.68;100.00;101761.84;4968758;28;19906;-49
2023/03/20 08:06:48;;;;;;;;;;;;;;;14.39;100.00;101764.59;4967380;28;19914;-51
2023/03/20 08:09:13;;;;;;;;;;;;;;;14.95;100.00;101768.19;4963687;28;19937;-52
2023/03/20 08:11:39;;;;;;;;;;;;;;;15.31;100.00;101772.44;4968787;28;19914;-52
2023/03/20 08:14:04;;;;;;;;;;;;;;;14.63;100.00;101763.25;4968514;28;19914;-50
2023/03/20 08:16:30;;;;;;;;;;;;;;;14.22;100.00;101771.31;4969388;28;19918;-50
2023/03/20 08:19:00;;;;;;;;;;;;;;;15.01;100.00;101767.41;4969088;28;19974;-49
2023/03/20 08:21:28;;;;;;;;;;;;;;;15.25;100.00;101769.72;4970252;28;19941;-47
2023/03/20 08:23:54;;;;;;;;;;;;;;;15.00;100.00;101772.97;4966700;28;19914;-50
2023/03/20 08:26:19;;;;;;;;;;;;;;;15.02;100.00;101774.44;4966704;28;19914;-49
2023/03/20 08:28:45;;;;;;;;;;;;;;;14.95;100.00;101770.06;4966076;28;19915;-53
2023/03/20 08:31:10;;;;;;;;;;;;;;;15.09;99.99;101773.63;4964072;28;19914;-48
2023/03/20 08:33:36;;;;;;;;;;;;;;;14.49;100.00;101764.25;4964224;28;19918;-50
2023/03/20 08:36:01;;;;;;;;;;;;;;;14.64;100.00;101761.41;4967771;28;19922;-49
2023/03/20 08:38:27;;;;;;;;;;;;;;;13.79;100.00;101772.25;4982484;28;19918;-51
2023/03/20 08:40:53;;;;;;;;;;;;;;;13.94;100.00;101764.09;4986892;28;19949;-55
2023/03/20 08:43:19;;;;;;;;;;;;;;;13.81;100.00;101768.31;4987855;28;19922;-53
2023/03/20 08:45:44;;;;;;;;;;;;;;;14.05;100.00;101758.16;4993016;28;19936;-52
2023/03/20 08:48:10;;;;;;;;;;;;;;;13.70;100.00;101772.38;4990843;28;19914;-48
2023/03/20 08:50:37;;;;;;;;;;;;;;;14.32;100.00;101759.19;4991221;28;19918;-49
2023/03/20 08:53:02;;;;;;;;;;;;;;;14.27;100.00;101766.16;4986533;28;19914;-52
2023/03/20 08:55:28;;;;;;;;;;;;;;;14.15;100.00;101758.66;4984789;28;19978;-51
2023/03/20 08:57:55;;;;;;;;;;;;;;;14.45;100.00;101762.97;4986442;28;19925;-52
2023/03/20 09:00:22;;;;;;;;;;;;;;;14.31;100.00;101765.59;4984562;28;19914;-53
2023/03/20 09:02:48;;;;;;;;;;;;;;;14.46;100.00;101761.97;4981318;28;19914;-49
2023/03/20 09:05:14;;;;;;;;;;;;;;;14.11;100.00;101757.41;4988843;28;19952;-49
2023/03/20 09:07:39;;;;;;;;;;;;;;;14.93;100.00;101764.06;4995095;28;19914;-50
2023/03/20 09:10:05;;;;;;;;;;;;;;;14.58;100.00;101760.34;4990562;28;19960;-48
2023/03/20 09:12:31;;;;;;;;;;;;;;;14.57;100.00;101760.56;4986885;28;19953;-50
2023/03/20 09:14:57;;;;;;;;;;;;;;;14.34;100.00;101769.75;4986960;28;19918;-50
2023/03/20 09:17:22;;;;;;;;;;;;;;;14.34;100.00;101778.66;4992866;28;19914;-52
2023/03/20 09:19:47;;;;;;;;;;;;;;;14.11;100.00;101780.75;4990691;28;19956;-50
2023/03/20 09:22:14;;;;;;;;;;;;;;;13.87;100.00;101781.00;4991787;28;20008;-49
2023/03/20 09:24:40;;;;;;;;;;;;;;;13.87;100.00;101781.00;4990429;28;19942;-50
2023/03/20 09:27:05;;;;;;;;;;;;;;;14.13;100.00;101774.16;4991775;28;19918;-51
2023/03/20 09:29:30;;;;;;;;;;;;;;;14.25;100.00;101776.31;4989979;28;19914;-51
2023/03/20 09:31:56;;;;;;;;;;;;;;;14.05;100.00;101779.69;4990984;28;19929;-52
2023/03/20 09:34:23;;;;;;;;;;;;;;;13.95;100.00;101780.00;4990530;28;19929;-51
2023/03/20 09:36:48;;;;;;;;;;;;;;;13.90;100.00;101767.19;4990700;28;19918;-49
2023/03/20 09:39:16;;;;;;;;;;;;;;;14.35;100.00;101779.50;4989590;28;19986;-49
2023/03/20 09:41:46;;;;;;;;;;;;;;;14.39;100.00;101775.38;4992110;28;19922;-53
2023/03/20 09:44:17;;;;;;;;;;;;;;;14.25;100.00;101774.47;4992772;28;19968;-51
2023/03/20 09:46:48;;;;;;;;;;;;;;;14.05;100.00;101791.28;4992774;28;19949;-49
2023/03/20 09:49:25;;;;;;;;;;;;;;;14.34;100.00;101784.03;4991882;28;19918;-54
2023/03/20 09:51:54;;;;;;;;;;;;;;;14.29;100.00;101781.09;4996400;28;19988;-52
2023/03/20 09:54:35;;;;;;;;;;;;;;;14.77;100.00;101779.53;4994156;28;19973;-53
2023/03/20 09:57:02;;;;;;;;;;;;;;;14.58;100.00;101789.13;4990890;28;19977;-50
2023/03/20 09:59:29;;;;;;;;;;;;;;;14.76;100.00;101776.00;4988373;28;19914;-49
2023/03/20 10:01:58;;;;;;;;;;;;;;;14.88;100.00;101776.28;4994315;28;19925;-52
2023/03/20 10:04:28;;;;;;;;;;;;;;;14.16;100.00;101776.47;4992612;28;20044;-49
2023/03/20 10:06:53;;;;;;;;;;;;;;;14.43;100.00;101773.13;4994479;28;19973;-48
2023/03/20 10:09:26;;;;;;;;;;;;;;;14.56;100.00;101773.19;4992991;28;19925;-50
2023/03/20 10:11:52;;;;;;;;;;;;;;;14.68;100.00;101769.94;4988337;28;19926;-49
2023/03/20 10:14:23;;;;;;;;;;;;;;;14.46;100.00;101767.34;4989767;28;19914;-52
2023/03/20 10:16:51;;;;;;;;;;;;;;;14.58;100.00;101775.69;4989021;28;19926;-51
2023/03/20 10:19:41;;;;;;;;;;;;;;;14.57;100.00;101757.88;4990572;28;19914;-52
2023/03/20 10:22:12;;;;;;;;;;;;;;;14.25;100.00;101776.31;4985814;28;19921;-51
2023/03/20 10:24:38;;;;;;;;;;;;;;;14.48;100.00;101774.16;4991226;28;19910;-49
2023/03/20 10:27:20;;;;;;;;;;;;;;;14.15;100.00;101764.03;4987642;28;19926;-51
2023/03/20 10:29:46;;;;;;;;;;;;;;;14.04;100.00;101761.88;4987534;28;19914;-51
2023/03/20 10:32:16;;;;;;;;;;;;;;;14.37;100.00;101761.28;4989118;28;19994;-56
2023/03/20 10:34:41;;;;;;;;;;;;;;;14.36;100.00;101764.16;4992688;28;19922;-51
2023/03/20 10:37:09;;;;;;;;;;;;;;;14.13;100.00;101766.09;4988593;28;19918;-51
2023/03/20 10:39:41;;;;;;;;;;;;;;;14.05;100.00;101766.22;4984218;28;19918;-48
2023/03/20 10:42:12;;;;;;;;;;;;;;;14.03;100.00;101776.34;4989639;28;19935;-50
2023/03/20 10:44:39;;;;;;;;;;;;;;;14.00;100.00;101777.59;4987134;28;19914;-51
2023/03/20 10:47:06;;;;;;;;;;;;;;;14.20;100.00;101758.91;4987174;28;19914;-52
2023/03/20 10:49:50;;;;;;;;;;;;;;;14.15;100.00;101768.56;4987787;28;19906;-50
2023/03/20 10:52:18;;;;;;;;;;;;;;;14.41;100.00;101757.16;4989741;28;19914;-52
2023/03/20 10:54:46;;;;;;;;;;;;;;;14.62;100.00;101750.03;4988827;28;19921;-49
2023/03/20 10:57:16;;;;;;;;;;;;;;;14.48;100.00;101757.19;4992879;28;19940;-50
2023/03/20 10:59:44;;;;;;;;;;;;;;;15.03;100.00;101757.25;4985712;28;19925;-51
2023/03/20 11:02:10;;;;;;;;;;;;;;;14.44;100.00;101751.38;4991437;28;19920;-52
2023/03/20 11:04:35;;;;;;;;;;;;;;;14.91;100.00;101748.94;4992503;28;19940;-50
2023/03/20 11:07:20;;;;;;;;;;;;;;;14.72;100.00;101758.56;4990224;28;19914;-53
2023/03/20 11:09:45;;;;;;;;;;;;;;;14.87;100.00;101744.13;4983237;28;19914;-57
2023/03/20 11:12:16;;;;;;;;;;;;;;;14.66;100.00;101743.19;4988780;28;19921;-53
2023/03/20 11:14:42;;;;;;;;;;;;;;;14.61;100.00;101746.47;4978638;28;19918;-53
2023/03/20 11:17:12;;;;;;;;;;;;;;;14.43;100.00;101736.25;4991143;28;19921;-49
2023/03/20 11:19:39;;;;;;;;;;;;;;;15.04;100.00;101750.00;4988210;28;19914;-53
2023/03/20 11:22:08;;;;;;;;;;;;;;;14.65;100.00;101743.38;4988281;28;19945;-52
2023/03/20 11:24:36;;;;;;;;;;;;;;;14.38;100.00;101752.19;4980700;28;19914;-54
2023/03/20 11:27:06;;;;;;;;;;;;;;;14.34;100.00;101751.72;4987097;28;19922;-52
2023/03/20 11:29:34;;;;;;;;;;;;;;;14.78;100.00;101740.78;4987449;28;19944;-51
2023/03/20 11:32:05;;;;;;;;;;;;;;;15.05;100.00;101732.78;4986843;28;19917;-48
2023/03/20 11:34:32;;;;;;;;;;;;;;;14.89;100.00;101728.59;4988625;28;19937;-48
2023/03/20 11:37:00;;;;;;;;;;;;;;;15.07;100.00;101743.38;4988756;28;19918;-52
2023/03/20 11:39:30;;;;;;;;;;;;;;;14.77;100.00;101723.81;4986505;28;19941;-54
2023/03/20 11:41:57;;;;;;;;;;;;;;;15.57;100.00;101727.69;4987787;28;19925;-53
2023/03/20 11:44:29;;;;;;;;;;;;;;;15.25;100.00;101722.06;4984896;28;19918;-48
2023/03/20 11:46:56;;;;;;;;;;;;;;;15.18;100.00;101713.97;4992301;28;19938;-51
2023/03/20 11:49:29;;;;;;;;;;;;;;;15.51;100.00;101712.34;4986482;28;19977;-52
2023/03/20 11:51:58;;;;;;;;;;;;;;;15.53;100.00;101720.22;4987903;28;19991;-50
2023/03/20 11:54:25;;;;;;;;;;;;;;;15.17;100.00;101714.16;4987407;28;19930;-49
2023/03/20 11:56:57;;;;;;;;;;;;;;;15.15;100.00;101713.53;4992065;28;19935;-49
2023/03/20 11:59:32;;;;;;;;;;;;;;;14.95;100.00;101729.66;4985908;28;19915;-50
2023/03/20 12:01:58;;;;;;;;;;;;;;;14.72;100.00;101722.75;4989767;28;19960;-52
2023/03/20 12:04:26;;;;;;;;;;;;;;;15.15;100.00;101716.22;4989517;28;19969;-54
2023/03/20 12:07:12;;;;;;;;;;;;;;;15.20;100.00;101706.50;4988309;28;19956;-48
2023/03/20 12:09:40;;;;;;;;;;;;;;;15.12;100.00;101700.47;4990941;28;19921;-51
2023/03/20 12:12:23;;;;;;;;;;;;;;;14.81;100.00;101721.53;4983056;28;19922;-53
2023/03/20 12:14:53;;;;;;;;;;;;;;;15.16;100.00;101713.34;4981702;28;19945;-51
2023/03/20 12:17:19;;;;;;;;;;;;;;;14.94;100.00;101701.06;4984913;28;19922;-53
2023/03/20 12:19:46;;;;;;;;;;;;;;;15.34;100.00;101704.66;4988458;28;20044;-52
2023/03/20 12:22:20;;;;;;;;;;;;;;;15.69;100.00;101698.22;4986920;28;19969;-55
2023/03/20 12:25:06;;;;;;;;;;;;;;;15.72;100.00;101705.09;4988400;28;19914;-51
2023/03/20 12:27:36;;;;;;;;;;;;;;;15.43;100.00;101704.44;4983347;28;19914;-51
2023/03/20 12:30:14;;;;;;;;;;;;;;;15.52;100.00;101714.00;4983661;28;19921;-54
2023/03/20 12:32:42;;;;;;;;;;;;;;;15.36;100.00;101703.63;4988081;28;19920;-51
2023/03/20 12:35:12;;;;;;;;;;;;;;;15.57;100.00;101694.50;4986159;28;19979;-51
2023/03/20 12:37:37;;;;;;;;;;;;;;;15.39;100.00;101697.81;4987626;28;19940;-51
2023/03/20 12:40:03;;;;;;;;;;;;;;;15.71;100.00;101685.38;4983748;28;19917;-49
2023/03/20 12:42:37;;;;;;;;;;;;;;;15.82;100.00;101707.34;4989786;28;19970;-51